createdAt,value
2018-05-17T00:00:17.732Z,1010.52
2018-05-17T00:00:58.492Z,1010.53
2018-05-17T00:01:42.008Z,1010.54
2018-05-17T00:02:22.483Z,1010.59
2018-05-17T00:03:03.133Z,1010.58
2018-05-17T00:03:44.807Z,1010.58
2018-05-17T00:04:25.400Z,1010.54
2018-05-17T00:05:06.243Z,1010.51
2018-05-17T00:05:46.668Z,1010.52
2018-05-17T00:06:28.396Z,1010.56
2018-05-17T00:07:10.156Z,1010.55
2018-05-17T00:07:51.922Z,1010.56
2018-05-17T00:08:34.529Z,1010.61
2018-05-17T00:09:15.798Z,1010.58
2018-05-17T00:09:56.702Z,1010.6
2018-05-17T00:10:42.012Z,1010.6
2018-05-17T00:11:23.020Z,1010.61
2018-05-17T00:12:04.426Z,1010.6
2018-05-17T00:12:50.006Z,1010.56
2018-05-17T00:13:31.492Z,1010.59
2018-05-17T00:14:12.062Z,1010.61
2018-05-17T00:14:52.436Z,1010.61
2018-05-17T00:15:35.498Z,1010.64
2018-05-17T00:16:16.772Z,1010.7
2018-05-17T00:16:59.752Z,1010.65
2018-05-17T00:17:41.202Z,1010.69
2018-05-17T00:18:21.314Z,1010.68
2018-05-17T00:19:01.922Z,1010.68
2018-05-17T00:19:44.088Z,1010.64
2018-05-17T00:20:25.049Z,1010.69
2018-05-17T00:21:08.779Z,1010.68
2018-05-17T00:21:48.764Z,1010.68
2018-05-17T00:22:29.506Z,1010.68
2018-05-17T00:23:09.918Z,1010.67
2018-05-17T00:23:50.643Z,1010.7
2018-05-17T00:24:31.540Z,1010.72
2018-05-17T00:25:12.630Z,1010.71
2018-05-17T00:25:55.366Z,1010.69
2018-05-17T00:26:36.868Z,1010.61
2018-05-17T00:27:17.798Z,1010.67
2018-05-17T00:27:59.534Z,1010.65
2018-05-17T00:28:39.770Z,1010.67
2018-05-17T00:29:21.316Z,1010.66
2018-05-17T00:30:02.472Z,1010.65
2018-05-17T00:30:43.212Z,1010.64
2018-05-17T00:31:24.136Z,1010.66
2018-05-17T00:32:04.899Z,1010.65
2018-05-17T00:32:46.244Z,1010.63
2018-05-17T00:33:30.018Z,1010.62
2018-05-17T00:34:10.406Z,1010.61
2018-05-17T00:34:50.917Z,1010.69
2018-05-17T00:35:31.995Z,1010.67
2018-05-17T00:36:14.217Z,1010.66
2018-05-17T00:36:57.424Z,1010.65
2018-05-17T00:37:38.216Z,1010.65
2018-05-17T00:38:18.577Z,1010.67
2018-05-17T00:39:00.103Z,1010.63
2018-05-17T00:39:41.072Z,1010.69
2018-05-17T00:40:21.768Z,1010.67
2018-05-17T00:41:03.481Z,1010.69
2018-05-17T00:41:44.242Z,1010.69
2018-05-17T00:42:28.342Z,1010.69
2018-05-17T00:43:08.851Z,1010.7
2018-05-17T00:43:49.309Z,1010.72
2018-05-17T00:44:29.787Z,1010.71
2018-05-17T00:45:12.250Z,1010.7
2018-05-17T00:45:54.969Z,1010.73
2018-05-17T00:46:36.074Z,1010.71
2018-05-17T00:47:16.521Z,1010.7
2018-05-17T00:47:57.877Z,1010.75
2018-05-17T00:48:39.125Z,1010.71
2018-05-17T00:49:20.364Z,1010.67
2018-05-17T00:50:01.399Z,1010.71
2018-05-17T00:50:41.989Z,1010.72
2018-05-17T00:51:23.618Z,1010.7
2018-05-17T00:52:04.281Z,1010.7
2018-05-17T00:52:45.017Z,1010.67
2018-05-17T00:53:24.979Z,1010.67
2018-05-17T00:54:06.254Z,1010.65
2018-05-17T00:54:47.325Z,1010.67
2018-05-17T00:55:28.522Z,1010.69
2018-05-17T00:56:10.671Z,1010.75
2018-05-17T00:56:54.109Z,1010.72
2018-05-17T00:57:34.497Z,1010.73
2018-05-17T00:58:15.596Z,1010.77
2018-05-17T00:59:00.954Z,1010.76
2018-05-17T00:59:43.027Z,1010.77
2018-05-17T01:00:25.247Z,1010.76
2018-05-17T01:01:05.471Z,1010.78
2018-05-17T01:01:49.090Z,1010.8
2018-05-17T01:02:33.341Z,1010.75
2018-05-17T01:03:13.758Z,1010.79
2018-05-17T01:03:54.369Z,1010.77
2018-05-17T01:04:36.832Z,1010.78
2018-05-17T01:05:18.208Z,1010.8
2018-05-17T01:05:59.677Z,1010.74
2018-05-17T01:06:41.380Z,1010.79
2018-05-17T01:07:22.588Z,1010.77
2018-05-17T01:08:04.443Z,1010.84
2018-05-17T01:08:45.561Z,1010.82
2018-05-17T01:09:26.778Z,1010.83
2018-05-17T01:10:07.858Z,1010.84
2018-05-17T01:10:48.740Z,1010.78
2018-05-17T01:11:29.559Z,1010.8
2018-05-17T01:12:09.988Z,1010.81
2018-05-17T01:14:29.216Z,1010.79
2018-05-17T01:15:14.638Z,1010.81
2018-05-17T01:15:55.199Z,1010.82
2018-05-17T01:16:36.432Z,1010.85
2018-05-17T01:17:16.790Z,1010.84
2018-05-17T01:17:58.930Z,1010.84
2018-05-17T01:18:39.772Z,1010.85
2018-05-17T01:19:21.343Z,1010.86
2018-05-17T01:20:03.240Z,1010.86
2018-05-17T01:20:44.049Z,1010.8
2018-05-17T01:21:26.146Z,1010.84
2018-05-17T01:22:06.969Z,1010.82
2018-05-17T01:22:47.927Z,1010.86
2018-05-17T01:23:28.989Z,1010.88
2018-05-17T01:24:10.291Z,1010.91
2018-05-17T01:24:51.490Z,1010.91
2018-05-17T01:25:33.200Z,1010.95
2018-05-17T01:26:13.619Z,1010.98
2018-05-17T01:26:54.051Z,1010.96
2018-05-17T01:27:34.694Z,1010.97
2018-05-17T01:28:15.274Z,1010.93
2018-05-17T01:28:55.967Z,1011.03
2018-05-17T01:29:36.529Z,1011
2018-05-17T01:30:17.251Z,1011.06
2018-05-17T01:30:58.041Z,1011.02
2018-05-17T01:31:38.799Z,1011.01
2018-05-17T01:32:21.974Z,1011.08
2018-05-17T01:33:04.325Z,1011.07
2018-05-17T01:33:44.684Z,1011.08
2018-05-17T01:34:25.220Z,1011.08
2018-05-17T01:35:06.698Z,1011.08
2018-05-17T01:35:50.160Z,1011.04
2018-05-17T01:36:31.613Z,1011.08
2018-05-17T01:37:11.823Z,1011.1
2018-05-17T01:37:52.307Z,1011.07
2018-05-17T01:38:35.370Z,1011.12
2018-05-17T01:39:20.543Z,1011.14
2018-05-17T01:40:02.572Z,1011.13
2018-05-17T01:40:43.669Z,1011.15
2018-05-17T01:41:24.222Z,1011.12
2018-05-17T01:42:07.324Z,1011.13
2018-05-17T01:42:48.943Z,1011.1
2018-05-17T01:43:29.652Z,1011.13
2018-05-17T01:44:10.232Z,1011.19
2018-05-17T01:44:51.173Z,1011.15
2018-05-17T01:45:31.655Z,1011.18
2018-05-17T01:46:12.951Z,1011.15
2018-05-17T01:46:54.965Z,1011.18
2018-05-17T01:47:35.305Z,1011.19
2018-05-17T01:48:16.232Z,1011.13
2018-05-17T01:48:56.901Z,1011.12
2018-05-17T01:49:37.799Z,1011.07
2018-05-17T01:50:18.811Z,1011.11
2018-05-17T01:51:02.085Z,1011.15
2018-05-17T01:51:43.003Z,1011.13
2018-05-17T01:52:24.172Z,1011.17
2018-05-17T01:53:06.574Z,1011.15
2018-05-17T01:53:48.153Z,1011.1
2018-05-17T01:54:31.029Z,1011.15
2018-05-17T01:55:12.568Z,1011.12
2018-05-17T01:55:53.314Z,1011.16
2018-05-17T01:56:35.461Z,1011.16
2018-05-17T02:06:32.316Z,1011.18
2018-05-17T02:07:16.989Z,1011.2
2018-05-17T02:07:57.692Z,1011.19
2018-05-17T02:08:38.327Z,1011.19
2018-05-17T02:09:18.719Z,1011.25
2018-05-17T02:09:59.285Z,1011.24
2018-05-17T02:10:39.643Z,1011.26
2018-05-17T02:11:21.007Z,1011.24
2018-05-17T02:12:02.746Z,1011.24
2018-05-17T02:12:52.309Z,1011.27
2018-05-17T02:13:33.132Z,1011.27
2018-05-17T02:14:13.925Z,1011.27
2018-05-17T02:14:54.242Z,1011.26
2018-05-17T02:15:34.653Z,1011.28
2018-05-17T02:16:16.084Z,1011.27
2018-05-17T02:16:57.547Z,1011.24
2018-05-17T02:19:21.346Z,1011.23
2018-05-17T02:20:05.393Z,1011.27
2018-05-17T02:20:46.293Z,1011.23
2018-05-17T02:21:31.233Z,1011.26
2018-05-17T02:22:13.431Z,1011.29
2018-05-17T02:22:56.523Z,1011.24
2018-05-17T02:23:37.560Z,1011.22
2018-05-17T02:24:17.615Z,1011.27
2018-05-17T02:24:59.564Z,1011.27
2018-05-17T02:25:39.978Z,1011.26
2018-05-17T02:26:20.540Z,1011.26
2018-05-17T02:27:01.500Z,1011.29
2018-05-17T02:27:43.689Z,1011.24
2018-05-17T02:28:25.296Z,1011.27
2018-05-17T02:29:07.353Z,1011.26
2018-05-17T02:29:47.822Z,1011.23
2018-05-17T02:30:28.365Z,1011.27
2018-05-17T02:31:09.959Z,1011.25
2018-05-17T02:31:50.309Z,1011.25
2018-05-17T02:32:31.825Z,1011.25
2018-05-17T02:33:12.459Z,1011.28
2018-05-17T02:33:53.044Z,1011.23
2018-05-17T02:34:33.682Z,1011.24
2018-05-17T02:35:14.271Z,1011.24
2018-05-17T02:35:54.916Z,1011.23
2018-05-17T02:36:35.885Z,1011.24
2018-05-17T02:37:18.434Z,1011.21
2018-05-17T02:38:05.960Z,1011.26
2018-05-17T02:38:49.581Z,1011.28
2018-05-17T02:39:30.591Z,1011.24
2018-05-17T02:40:11.390Z,1011.28
2018-05-17T02:40:51.815Z,1011.27
2018-05-17T02:41:33.495Z,1011.28
2018-05-17T02:42:16.076Z,1011.29
2018-05-17T02:42:58.577Z,1011.3
2018-05-17T02:43:43.008Z,1011.33
2018-05-17T02:44:25.594Z,1011.3
2018-05-17T02:45:06.844Z,1011.29
2018-05-17T02:45:48.761Z,1011.29
2018-05-17T02:46:28.872Z,1011.29
2018-05-17T02:47:12.153Z,1011.28
2018-05-17T02:47:52.943Z,1011.26
2018-05-17T02:48:33.315Z,1011.26
2018-05-17T02:49:15.131Z,1011.25
2018-05-17T02:49:55.961Z,1011.29
2018-05-17T02:50:36.805Z,1011.29
2018-05-17T02:51:17.087Z,1011.28
2018-05-17T02:51:58.589Z,1011.31
2018-05-17T02:52:40.575Z,1011.24
2018-05-17T02:53:21.757Z,1011.29
2018-05-17T02:54:02.552Z,1011.32
2018-05-17T02:54:44.377Z,1011.31
2018-05-17T02:55:26.741Z,1011.28
2018-05-17T02:56:07.501Z,1011.29
2018-05-17T02:56:48.388Z,1011.29
2018-05-17T02:57:29.675Z,1011.28
2018-05-17T02:58:12.550Z,1011.3
2018-05-17T02:58:55.833Z,1011.26
2018-05-17T02:59:36.936Z,1011.26
2018-05-17T03:00:17.325Z,1011.24
2018-05-17T03:00:57.708Z,1011.24
2018-05-17T03:01:41.195Z,1011.23
2018-05-17T03:02:20.954Z,1011.28
2018-05-17T03:03:02.995Z,1011.27
2018-05-17T03:03:44.282Z,1011.25
2018-05-17T03:04:26.310Z,1011.27
2018-05-17T03:05:06.965Z,1011.29
2018-05-17T03:05:47.987Z,1011.3
2018-05-17T03:06:29.082Z,1011.18
2018-05-17T03:07:09.435Z,1011.35
2018-05-17T03:07:49.827Z,1011.3
2018-05-17T03:08:32.902Z,1011.29
2018-05-17T03:09:13.391Z,1011.35
2018-05-17T03:09:53.922Z,1011.34
2018-05-17T03:10:34.648Z,1011.37
2018-05-17T03:11:15.514Z,1011.41
2018-05-17T03:11:58.463Z,1011.36
2018-05-17T03:12:41.237Z,1011.38
2018-05-17T03:13:21.467Z,1011.4
2018-05-17T03:14:02.804Z,1011.34
2018-05-17T03:14:44.927Z,1011.38
2018-05-17T03:15:25.371Z,1011.4
2018-05-17T03:16:08.778Z,1011.41
2018-05-17T03:16:49.870Z,1011.36
2018-05-17T03:21:49.189Z,1011.43
2018-05-17T03:22:32.106Z,1011.44
2018-05-17T03:23:13.787Z,1011.46
2018-05-17T03:23:55.025Z,1011.37
2018-05-17T03:24:35.406Z,1011.4
2018-05-17T03:25:16.686Z,1011.44
2018-05-17T03:25:57.768Z,1011.49
2018-05-17T03:26:38.518Z,1011.49
2018-05-17T03:27:19.350Z,1011.48
2018-05-17T03:28:03.016Z,1011.45
2018-05-17T03:28:42.624Z,1011.45
2018-05-17T03:29:23.498Z,1011.47
2018-05-17T03:30:05.411Z,1011.48
2018-05-17T03:30:46.425Z,1011.48
2018-05-17T03:31:28.324Z,1011.47
2018-05-17T03:32:09.201Z,1011.46
2018-05-17T03:32:50.218Z,1011.45
2018-05-17T03:33:33.292Z,1011.46
2018-05-17T03:34:16.294Z,1011.5
2018-05-17T03:34:57.483Z,1011.45
2018-05-17T03:46:16.812Z,1011.5
2018-05-17T03:47:04.368Z,1011.51
2018-05-17T03:52:57.389Z,1011.57
2018-05-17T03:55:21.269Z,1011.6
2018-05-17T03:56:04.026Z,1011.58
2018-05-17T03:56:49.030Z,1011.63
2018-05-17T03:57:30.730Z,1011.6
2018-05-17T03:58:13.303Z,1011.54
2018-05-17T03:58:53.716Z,1011.6
2018-05-17T03:59:34.606Z,1011.58
2018-05-17T04:00:16.070Z,1011.6
2018-05-17T04:01:00.739Z,1011.63
2018-05-17T04:01:42.601Z,1011.57
2018-05-17T04:43:34.502Z,1011.77
2018-05-17T04:44:14.871Z,1011.68
2018-05-17T04:44:55.264Z,1011.71
2018-05-17T04:45:35.622Z,1011.75
2018-05-17T04:46:16.080Z,1011.74
2018-05-17T04:46:56.428Z,1011.73
2018-05-17T04:47:36.811Z,1011.84
2018-05-17T04:48:17.247Z,1011.76
2018-05-17T04:48:57.622Z,1011.82
2018-05-17T04:49:38.049Z,1011.81
2018-05-17T04:50:18.433Z,1011.78
2018-05-17T04:50:58.868Z,1011.79
2018-05-17T04:51:39.272Z,1011.83
2018-05-17T04:52:19.641Z,1011.81
2018-05-17T04:53:00.033Z,1011.81
2018-05-17T04:53:40.469Z,1011.83
2018-05-17T04:54:20.884Z,1011.84
2018-05-17T04:55:01.273Z,1011.82
2018-05-17T04:55:41.661Z,1011.83
2018-05-17T04:56:22.089Z,1011.87
2018-05-17T04:57:02.535Z,1011.88
2018-05-17T04:57:42.913Z,1011.87
2018-05-17T04:58:23.317Z,1011.85
2018-05-17T04:59:03.732Z,1011.82
2018-05-17T04:59:44.096Z,1011.84
2018-05-17T05:00:24.500Z,1011.81
2018-05-17T05:01:04.910Z,1011.82
2018-05-17T05:01:45.293Z,1011.83
2018-05-17T05:02:25.679Z,1011.86
2018-05-17T05:03:06.088Z,1011.85
2018-05-17T05:03:46.478Z,1011.85
2018-05-17T05:04:26.836Z,1011.84
2018-05-17T05:05:07.263Z,1011.86
2018-05-17T05:05:47.658Z,1011.84
2018-05-17T05:06:28.025Z,1011.81
2018-05-17T05:07:08.468Z,1011.8
2018-05-17T05:07:48.845Z,1011.79
2018-05-17T05:08:29.226Z,1011.82
2018-05-17T05:09:09.595Z,1011.82
2018-05-17T05:09:50.031Z,1011.84
2018-05-17T05:10:30.424Z,1011.82
2018-05-17T05:11:10.877Z,1011.8
2018-05-17T05:11:51.207Z,1011.81
2018-05-17T05:12:31.662Z,1011.78
2018-05-17T05:13:12.028Z,1011.79
2018-05-17T05:13:52.457Z,1011.78
2018-05-17T05:14:32.818Z,1011.8
2018-05-17T05:15:13.238Z,1011.79
2018-05-17T05:15:53.611Z,1011.79
2018-05-17T05:16:34.026Z,1011.76
2018-05-17T05:17:14.445Z,1011.75
2018-05-17T05:17:54.811Z,1011.77
2018-05-17T05:18:35.228Z,1011.76
2018-05-17T05:19:15.604Z,1011.79
2018-05-17T05:19:56.029Z,1011.76
2018-05-17T05:20:36.422Z,1011.77
2018-05-17T05:21:16.838Z,1011.78
2018-05-17T05:21:57.198Z,1011.77
2018-05-17T05:22:37.658Z,1011.77
2018-05-17T05:23:18.054Z,1011.81
2018-05-17T05:23:58.390Z,1011.8
2018-05-17T05:24:38.824Z,1011.81
2018-05-17T05:25:19.279Z,1011.8
2018-05-17T05:25:59.590Z,1011.8
2018-05-17T05:26:39.972Z,1011.8
2018-05-17T05:27:20.405Z,1011.83
2018-05-17T05:28:00.806Z,1011.8
2018-05-17T05:28:41.220Z,1011.84
2018-05-17T05:29:21.637Z,1011.86
2018-05-17T05:30:02.074Z,1011.85
2018-05-17T05:30:42.457Z,1011.87
2018-05-17T05:31:22.992Z,1011.86
2018-05-17T05:32:03.394Z,1011.9
2018-05-17T05:32:43.771Z,1011.81
2018-05-17T05:33:24.179Z,1011.93
2018-05-17T05:34:04.647Z,1011.84
2018-05-17T05:34:45.081Z,1011.91
2018-05-17T05:35:25.487Z,1011.93
2018-05-17T05:36:05.963Z,1011.93
2018-05-17T05:36:46.296Z,1011.91
2018-05-17T05:37:26.798Z,1011.92
2018-05-17T05:38:07.222Z,1011.9
2018-05-17T05:38:47.748Z,1011.9
2018-05-17T05:39:28.190Z,1011.9
2018-05-17T05:40:08.575Z,1011.94
2018-05-17T05:40:48.941Z,1011.9
2018-05-17T05:41:29.354Z,1011.93
2018-05-17T05:42:09.784Z,1011.9
2018-05-17T05:42:50.187Z,1011.95
2018-05-17T05:43:45.532Z,1011.96
2018-05-17T05:44:25.927Z,1011.94
2018-05-17T05:45:06.336Z,1011.87
2018-05-17T05:45:46.713Z,1011.93
2018-05-17T05:46:27.204Z,1011.94
2018-05-17T05:47:07.653Z,1011.87
2018-05-17T05:47:48.071Z,1011.93
2018-05-17T05:48:28.482Z,1011.94
2018-05-17T05:49:08.913Z,1011.93
2018-05-17T05:49:49.335Z,1011.91
2018-05-17T05:50:29.773Z,1011.95
2018-05-17T05:51:10.369Z,1011.93
2018-05-17T05:58:01.647Z,1012.04
2018-05-17T05:58:42.021Z,1012.06
2018-05-17T05:59:22.742Z,1012.08
2018-05-17T06:00:03.326Z,1012.08
2018-05-17T06:00:43.750Z,1012.04
2018-05-17T06:01:24.107Z,1012.04
2018-05-17T06:02:04.640Z,1012.03
2018-05-17T06:02:45.219Z,1012.08
2018-05-17T06:03:25.933Z,1012.07
2018-05-17T06:04:07.388Z,1012.06
2018-05-17T06:04:46.884Z,1012.05
2018-05-17T06:05:27.624Z,1012.07
2018-05-17T06:06:08.074Z,1012.08
2018-05-17T06:06:48.734Z,1011.98
2018-05-17T06:07:29.456Z,1012.08
2018-05-17T06:08:10.098Z,1012.13
2018-05-17T06:08:50.780Z,1012.11
2018-05-17T06:09:31.334Z,1012.09
2018-05-17T06:10:12.201Z,1012.1
2018-05-17T06:10:52.962Z,1012.07
2018-05-17T06:11:34.415Z,1012.09
2018-05-17T06:12:14.364Z,1012.1
2018-05-17T06:12:55.171Z,1012.09
2018-05-17T06:13:38.865Z,1012.1
2018-05-17T06:14:21.985Z,1012.11
2018-05-17T06:15:07.545Z,1012.13
2018-05-17T06:15:50.480Z,1012.09
2018-05-17T06:16:31.954Z,1012.12
2018-05-17T06:17:13.723Z,1012.09
2018-05-17T06:17:55.154Z,1012.12
2018-05-17T06:18:37.026Z,1012.11
2018-05-17T06:19:18.462Z,1012.13
2018-05-17T06:20:00.304Z,1012.14
2018-05-17T06:20:41.246Z,1012.11
2018-05-17T06:21:21.820Z,1012.07
2018-05-17T06:22:03.587Z,1012.12
2018-05-17T06:22:43.551Z,1012.1
2018-05-17T06:23:25.385Z,1012.13
2018-05-17T06:24:05.681Z,1012.09
2018-05-17T06:24:47.016Z,1012.1
2018-05-17T06:25:27.766Z,1012.12
2018-05-17T06:26:08.490Z,1012.13
2018-05-17T06:26:49.134Z,1012.13
2018-05-17T06:27:29.632Z,1012.15
2018-05-17T06:28:10.375Z,1012.15
2018-05-17T06:28:51.362Z,1012.13
2018-05-17T06:29:31.921Z,1012.15
2018-05-17T06:30:37.896Z,1012.15
2018-05-17T06:31:18.901Z,1012.13
2018-05-17T06:31:59.884Z,1012.2
2018-05-17T06:32:40.351Z,1012.17
2018-05-17T06:33:21.394Z,1012.16
2018-05-17T06:34:02.473Z,1012.16
2018-05-17T06:34:43.385Z,1012.13
2018-05-17T06:35:23.386Z,1012.19
2018-05-17T06:36:03.890Z,1012.16
2018-05-17T06:36:45.052Z,1012.18
2018-05-17T06:37:25.283Z,1012.23
2018-05-17T06:38:07.909Z,1012.14
2018-05-17T06:38:48.866Z,1012.16
2018-05-17T06:39:28.855Z,1012.17
2018-05-17T06:40:09.919Z,1012.13
2018-05-17T06:40:50.479Z,1012.18
2018-05-17T06:41:31.889Z,1012.16
2018-05-17T06:42:11.970Z,1012.2
2018-05-17T06:42:53.870Z,1012.17
2018-05-17T06:43:34.405Z,1012.12
2018-05-17T06:44:14.825Z,1012.16
2018-05-17T06:44:56.515Z,1012.15
2018-05-17T06:45:36.937Z,1012.14
2018-05-17T06:46:17.035Z,1012.19
2018-05-17T06:46:57.411Z,1012.15
2018-05-17T06:47:37.922Z,1012.17
2018-05-17T06:48:18.383Z,1012.15
2018-05-17T06:48:58.838Z,1012.18
2018-05-17T06:49:39.213Z,1012.12
2018-05-17T06:50:19.667Z,1012.15
2018-05-17T06:51:00.097Z,1012.13
2018-05-17T06:51:40.463Z,1012.15
2018-05-17T06:52:21.084Z,1012.1
2018-05-17T06:53:01.746Z,1012.12
2018-05-17T06:53:42.177Z,1012.13
2018-05-17T06:54:37.609Z,1012.15
2018-05-17T06:59:01.548Z,1012.16
2018-05-17T06:59:41.660Z,1012.15
2018-05-17T07:00:22.771Z,1012.13
2018-05-17T07:01:03.297Z,1012.14
2018-05-17T07:01:43.986Z,1012.15
2018-05-17T07:02:25.875Z,1012.13
2018-05-17T07:06:24.762Z,1012.18
2018-05-17T07:07:05.347Z,1012.2
2018-05-17T07:07:45.904Z,1012.19
2018-05-17T07:08:26.479Z,1012.23
2018-05-17T07:09:06.914Z,1012.23
2018-05-17T07:09:47.291Z,1012.24
2018-05-17T07:10:27.877Z,1012.22
2018-05-17T07:11:08.438Z,1012.25
2018-05-17T07:11:50.885Z,1012.25
2018-05-17T07:12:31.498Z,1012.24
2018-05-17T07:13:12.754Z,1012.25
2018-05-17T07:13:52.655Z,1012.28
2018-05-17T07:14:33.074Z,1012.29
2018-05-17T07:15:13.464Z,1012.27
2018-05-17T07:15:53.860Z,1012.3
2018-05-17T07:16:34.233Z,1012.28
2018-05-17T07:17:14.619Z,1012.35
2018-05-17T07:17:55.144Z,1012.32
2018-05-17T07:18:35.828Z,1012.31
2018-05-17T07:19:16.050Z,1012.34
2018-05-17T07:19:56.477Z,1012.31
2018-05-17T07:20:36.902Z,1012.28
2018-05-17T07:21:18.747Z,1012.3
2018-05-17T07:21:58.531Z,1012.28
2018-05-17T07:22:39.007Z,1012.3
2018-05-17T07:23:19.465Z,1012.27
2018-05-17T07:23:59.828Z,1012.29
2018-05-17T07:24:40.268Z,1012.3
2018-05-17T07:25:20.631Z,1012.27
2018-05-17T07:26:01.066Z,1012.28
2018-05-17T07:26:41.459Z,1012.29
2018-05-17T07:27:21.863Z,1012.34
2018-05-17T07:28:02.230Z,1012.31
2018-05-17T07:28:43.270Z,1012.35
2018-05-17T07:29:23.236Z,1012.3
2018-05-17T07:30:03.573Z,1012.31
2018-05-17T07:30:43.997Z,1012.31
2018-05-17T07:31:24.560Z,1012.31
2018-05-17T07:32:04.827Z,1012.34
2018-05-17T07:32:45.305Z,1012.39
2018-05-17T07:33:25.866Z,1012.31
2018-05-17T07:34:06.317Z,1012.38
2018-05-17T07:34:46.769Z,1012.38
2018-05-17T07:35:27.156Z,1012.37
2018-05-17T07:36:07.565Z,1012.41
2018-05-17T07:36:48.082Z,1012.44
2018-05-17T07:37:28.456Z,1012.41
2018-05-17T07:38:08.900Z,1012.39
2018-05-17T07:38:49.293Z,1012.34
2018-05-17T07:39:29.678Z,1012.35
2018-05-17T07:40:10.114Z,1012.32
2018-05-17T07:40:50.468Z,1012.34
2018-05-17T07:41:30.825Z,1012.38
2018-05-17T07:42:11.263Z,1012.36
2018-05-17T07:42:51.822Z,1012.38
2018-05-17T07:43:32.181Z,1012.39
2018-05-17T07:44:13.645Z,1012.36
2018-05-17T07:44:54.096Z,1012.32
2018-05-17T07:45:34.526Z,1012.31
2018-05-17T07:46:16.272Z,1012.39
2018-05-17T07:46:56.766Z,1012.32
2018-05-17T07:47:37.100Z,1012.36
2018-05-17T07:48:17.490Z,1012.39
2018-05-17T07:48:58.059Z,1012.38
2018-05-17T07:49:38.469Z,1012.4
2018-05-17T07:50:18.966Z,1012.38
2018-05-17T07:50:59.351Z,1012.36
2018-05-17T07:51:39.835Z,1012.41
2018-05-17T07:52:20.180Z,1012.41
2018-05-17T07:53:01.556Z,1012.36
2018-05-17T07:53:41.866Z,1012.38
2018-05-17T07:54:22.338Z,1012.42
2018-05-17T07:55:02.748Z,1012.43
2018-05-17T07:55:43.136Z,1012.43
2018-05-17T07:56:23.556Z,1012.45
2018-05-17T07:57:03.983Z,1012.46
2018-05-17T07:57:44.320Z,1012.49
2018-05-17T07:58:24.745Z,1012.43
2018-05-17T07:59:05.178Z,1012.46
2018-05-17T07:59:47.371Z,1012.47
2018-05-17T08:00:28.034Z,1012.4
2018-05-17T08:01:09.023Z,1012.43
2018-05-17T08:01:49.134Z,1012.45
2018-05-17T08:02:29.723Z,1012.42
2018-05-17T08:03:10.699Z,1012.42
2018-05-17T08:03:51.122Z,1012.4
2018-05-17T08:04:31.502Z,1012.43
2018-05-17T08:05:11.894Z,1012.37
2018-05-17T08:05:52.294Z,1012.36
2018-05-17T08:06:32.784Z,1012.38
2018-05-17T08:07:13.184Z,1012.36
2018-05-17T08:07:53.603Z,1012.38
2018-05-17T08:08:34.020Z,1012.41
2018-05-17T08:09:14.403Z,1012.37
2018-05-17T08:09:54.851Z,1012.38
2018-05-17T08:10:35.289Z,1012.35
2018-05-17T08:11:15.698Z,1012.41
2018-05-17T08:11:56.223Z,1012.38
2018-05-17T08:12:36.680Z,1012.38
2018-05-17T08:13:17.065Z,1012.43
2018-05-17T08:13:57.493Z,1012.43
2018-05-17T08:14:38.433Z,1012.45
2018-05-17T08:15:18.601Z,1012.4
2018-05-17T08:15:58.999Z,1012.41
2018-05-17T08:16:39.465Z,1012.43
2018-05-17T08:17:19.875Z,1012.41
2018-05-17T08:18:00.963Z,1012.42
2018-05-17T08:18:41.238Z,1012.45
2018-05-17T08:19:21.739Z,1012.49
2018-05-17T08:20:11.910Z,1012.47
2018-05-17T08:22:05.840Z,1012.45
2018-05-17T08:22:46.162Z,1012.47
2018-05-17T08:23:26.569Z,1012.46
2018-05-17T08:24:07.077Z,1012.44
2018-05-17T08:24:48.553Z,1012.51
2018-05-17T08:25:28.271Z,1012.47
2018-05-17T08:26:08.667Z,1012.44
2018-05-17T08:26:49.163Z,1012.48
2018-05-17T08:27:29.577Z,1012.44
2018-05-17T08:28:10.155Z,1012.42
2018-05-17T08:28:50.852Z,1012.43
2018-05-17T08:29:33.130Z,1012.5
2018-05-17T08:30:13.439Z,1012.48
2018-05-17T08:30:54.250Z,1012.48
2018-05-17T08:31:34.732Z,1012.45
2018-05-17T08:32:15.122Z,1012.48
2018-05-17T08:34:44.681Z,1012.51
2018-05-17T08:35:39.872Z,1012.53
2018-05-17T08:36:35.389Z,1012.49
2018-05-17T08:37:22.520Z,1012.5
2018-05-17T08:38:17.677Z,1012.52
2018-05-17T08:38:58.220Z,1012.53
2018-05-17T08:39:38.718Z,1012.55
2018-05-17T08:40:40.521Z,1012.49
2018-05-17T08:41:43.949Z,1012.46
2018-05-17T08:45:34.159Z,1012.48
2018-05-17T08:46:14.557Z,1012.53
2018-05-17T08:46:54.933Z,1012.55
2018-05-17T08:47:35.401Z,1012.56
2018-05-17T08:48:16.026Z,1012.55
2018-05-17T08:48:59.223Z,1012.59
2018-05-17T08:49:39.559Z,1012.5
2018-05-17T08:50:20.524Z,1012.49
2018-05-17T08:51:01.245Z,1012.51
2018-05-17T08:51:42.161Z,1012.55
2018-05-17T08:52:22.647Z,1012.52
2018-05-17T08:53:03.306Z,1012.55
2018-05-17T08:53:44.743Z,1012.55
2018-05-17T08:54:25.100Z,1012.52
2018-05-17T08:55:05.440Z,1012.5
2018-05-17T08:55:46.203Z,1012.41
2018-05-17T08:56:27.247Z,1012.48
2018-05-17T08:57:07.269Z,1012.45
2018-05-17T08:57:47.745Z,1012.45
2018-05-17T08:58:28.110Z,1012.41
2018-05-17T08:59:15.315Z,1012.52
2018-05-17T08:59:56.099Z,1012.52
2018-05-17T09:00:51.284Z,1012.52
2018-05-17T09:01:38.606Z,1012.52
2018-05-17T09:02:33.540Z,1012.55
2018-05-17T09:03:13.950Z,1012.55
2018-05-17T09:04:23.808Z,1012.55
2018-05-17T09:05:04.281Z,1012.56
2018-05-17T09:06:00.728Z,1012.54
2018-05-17T09:06:55.215Z,1012.54
2018-05-17T09:07:35.741Z,1012.58
2018-05-17T09:08:30.901Z,1012.56
2018-05-17T09:09:26.315Z,1012.58
2018-05-17T09:10:21.533Z,1012.55
2018-05-17T09:11:01.921Z,1012.6
2018-05-17T09:15:27.940Z,1012.46
2018-05-17T09:16:08.350Z,1012.5
2018-05-17T09:17:03.636Z,1012.54
2018-05-17T09:17:44.034Z,1012.61
2018-05-17T09:18:39.241Z,1012.59
2018-05-17T09:19:26.677Z,1012.6
2018-05-17T09:20:07.216Z,1012.53
2018-05-17T09:20:47.518Z,1012.63
2018-05-17T09:21:42.883Z,1012.51
2018-05-17T09:22:23.256Z,1012.54
2018-05-17T09:23:03.712Z,1012.56
2018-05-17T09:23:44.227Z,1012.6
2018-05-17T09:24:24.596Z,1012.58
2018-05-17T09:25:05.017Z,1012.63
2018-05-17T09:25:45.674Z,1012.63
2018-05-17T09:26:26.188Z,1012.62
2018-05-17T09:27:06.749Z,1012.61
2018-05-17T09:27:47.135Z,1012.62
2018-05-17T09:28:27.734Z,1012.61
2018-05-17T09:29:08.146Z,1012.6
2018-05-17T09:29:48.947Z,1012.53
2018-05-17T09:30:29.547Z,1012.59
2018-05-17T09:31:10.118Z,1012.64
2018-05-17T09:31:57.365Z,1012.62
2018-05-17T09:32:39.802Z,1012.6
2018-05-17T09:33:20.553Z,1012.55
2018-05-17T09:42:11.859Z,1012.57
2018-05-17T09:46:10.344Z,1012.59
2018-05-17T09:47:58.319Z,1012.61
2018-05-17T09:48:39.642Z,1012.56
2018-05-17T09:49:19.727Z,1012.65
2018-05-17T09:50:00.169Z,1012.59
2018-05-17T09:50:40.694Z,1012.59
2018-05-17T09:51:22.419Z,1012.58
2018-05-17T09:52:02.472Z,1012.58
2018-05-17T09:52:42.994Z,1012.56
2018-05-17T09:53:23.835Z,1012.54
2018-05-17T09:54:04.368Z,1012.58
2018-05-17T09:54:45.840Z,1012.52
2018-05-17T09:55:27.376Z,1012.55
2018-05-17T09:56:08.152Z,1012.52
2018-05-17T09:56:50.012Z,1012.58
2018-05-17T09:57:30.426Z,1012.58
2018-05-17T09:58:10.906Z,1012.6
2018-05-17T09:58:51.976Z,1012.59
2018-05-17T09:59:32.498Z,1012.58
2018-05-17T10:00:13.116Z,1012.6
2018-05-17T10:00:53.562Z,1012.6
2018-05-17T10:01:34.104Z,1012.55
2018-05-17T10:02:14.811Z,1012.63
2018-05-17T10:03:25.437Z,1012.59
2018-05-17T10:42:30.987Z,1012.38
2018-05-17T10:43:11.594Z,1012.41
2018-05-17T10:43:52.258Z,1012.37
2018-05-17T10:44:32.754Z,1012.29
2018-05-17T10:45:13.118Z,1012.32
2018-05-17T10:45:53.735Z,1012.3
2018-05-17T10:46:34.347Z,1012.35
2018-05-17T10:47:14.920Z,1012.34
2018-05-17T10:47:55.328Z,1012.35
2018-05-17T10:48:35.736Z,1012.4
2018-05-17T10:49:16.171Z,1012.35
2018-05-17T10:49:56.556Z,1012.28
2018-05-17T10:50:37.123Z,1012.3
2018-05-17T10:51:17.624Z,1012.31
2018-05-17T10:51:58.018Z,1012.33
2018-05-17T10:52:38.522Z,1012.4
2018-05-17T10:53:19.115Z,1012.39
2018-05-17T10:54:00.178Z,1012.36